createdAt,value
2023-01-01T17:43:59.896Z,11.20
2023-01-01T17:46:10.621Z,11.00
2023-01-01T17:48:12.375Z,10.90
2023-01-01T17:50:14.171Z,10.70
2023-01-01T17:52:16.116Z,10.60
2023-01-01T17:54:17.876Z,10.60
2023-01-01T17:56:22.175Z,10.50
2023-01-01T17:58:24.196Z,10.50
2023-01-01T18:00:25.973Z,10.40
2023-01-01T18:02:27.886Z,10.40
2023-01-01T18:04:29.828Z,10.30
2023-01-01T18:06:37.167Z,10.30
2023-01-01T18:08:42.218Z,10.20
2023-01-01T18:10:44.020Z,10.30
2023-01-01T18:12:45.848Z,10.10
2023-01-01T18:14:47.828Z,10.10
2023-01-01T18:16:49.734Z,10.00
2023-01-01T18:18:52.018Z,10.00
2023-01-01T18:21:02.395Z,9.90
2023-01-01T18:23:04.282Z,9.90
2023-01-01T18:25:06.591Z,9.90
2023-01-01T18:27:08.318Z,9.80
2023-01-01T18:29:10.268Z,9.80
2023-01-01T18:31:14.912Z,9.70
2023-01-01T18:33:16.685Z,9.60
2023-01-01T18:35:18.471Z,9.60
2023-01-01T18:37:20.309Z,9.60
2023-01-01T18:39:27.892Z,9.60
2023-01-01T18:41:48.545Z,9.50
2023-01-01T18:43:50.297Z,9.50
2023-01-01T18:45:52.178Z,9.50
2023-01-01T18:47:54.982Z,9.50
2023-01-01T18:50:14.625Z,9.50
2023-01-01T18:52:27.801Z,9.50
2023-01-01T18:54:30.126Z,9.40
2023-01-01T18:56:31.889Z,9.40
2023-01-01T18:58:33.665Z,9.40
2023-01-01T19:00:37.134Z,9.30
2023-01-01T19:02:43.742Z,9.30
2023-01-01T19:04:45.644Z,9.30
2023-01-01T19:06:47.401Z,9.20
2023-01-01T19:08:50.106Z,9.20
2023-01-01T19:10:53.844Z,9.20
2023-01-01T19:12:56.256Z,9.20
2023-01-01T19:14:58.133Z,9.10
2023-01-01T19:17:01.391Z,9.20
2023-01-01T19:19:21.409Z,9.30
2023-01-01T19:21:24.534Z,9.30
2023-01-01T19:23:26.392Z,9.30
2023-01-01T19:25:40.886Z,9.30
2023-01-01T19:27:42.656Z,9.30
2023-01-01T19:29:47.994Z,9.30
2023-01-01T19:31:52.512Z,9.30
2023-01-01T19:33:54.369Z,9.30
2023-01-01T19:35:56.952Z,9.40
2023-01-01T19:37:58.713Z,9.30
2023-01-01T19:40:00.487Z,9.30
2023-01-01T19:42:07.239Z,9.30
2023-01-01T19:44:10.411Z,9.30
2023-01-01T19:46:13.194Z,9.20
2023-01-01T19:48:15.261Z,9.30
2023-01-01T19:50:17.068Z,9.30
2023-01-01T19:52:18.816Z,9.30
2023-01-01T19:54:20.611Z,9.20
2023-01-01T19:56:23.150Z,9.20
2023-01-01T19:58:24.957Z,9.20
2023-01-01T20:00:28.070Z,9.10
2023-01-01T20:02:47.140Z,9.10
2023-01-01T20:04:49.828Z,9.10
2023-01-01T20:06:51.992Z,9.10
2023-01-01T20:08:54.569Z,9.20
2023-01-01T20:10:56.634Z,9.10
2023-01-01T20:12:58.771Z,9.20
2023-01-01T20:15:00.631Z,9.30
2023-01-01T20:20:18.915Z,9.30
2023-01-01T20:22:21.984Z,9.40
2023-01-01T20:24:23.727Z,9.40
2023-01-01T20:26:26.196Z,9.40
2023-01-01T20:28:46.648Z,9.50
2023-01-01T20:30:48.406Z,9.50
2023-01-01T20:32:50.292Z,9.50
2023-01-01T20:34:53.135Z,9.50
2023-01-01T20:37:13.667Z,9.50
2023-01-01T20:39:15.448Z,9.50
2023-01-01T20:41:23.333Z,9.60
2023-01-01T20:43:25.076Z,9.60
2023-01-01T20:45:26.867Z,9.60
2023-01-01T20:47:28.693Z,9.60
2023-01-01T20:49:30.475Z,9.60
2023-01-01T20:51:32.606Z,9.60
2023-01-01T20:53:34.334Z,9.60
2023-01-01T20:55:36.108Z,9.60
2023-01-01T20:57:37.895Z,9.60
2023-01-01T20:59:39.700Z,9.60
2023-01-01T21:01:42.251Z,9.60
2023-01-01T21:03:44.486Z,9.60
2023-01-01T21:05:46.254Z,9.60
2023-01-01T21:07:48.034Z,9.50
2023-01-01T21:09:49.791Z,9.50
2023-01-01T21:11:51.564Z,9.50
2023-01-01T21:13:53.314Z,9.50
2023-01-01T21:15:56.620Z,9.50
2023-01-01T21:17:59.084Z,9.50
2023-01-01T21:20:00.839Z,9.50
2023-01-01T21:22:04.043Z,9.40
2023-01-01T21:24:21.266Z,9.40
2023-01-01T21:26:27.883Z,9.30
2023-01-01T21:28:33.806Z,9.30
2023-01-01T21:30:38.361Z,9.30
2023-01-01T21:32:42.477Z,9.20
2023-01-01T21:34:45.363Z,9.20
2023-01-01T21:36:47.092Z,9.10
2023-01-01T21:38:51.714Z,9.10
2023-01-01T21:40:53.521Z,9.00
2023-01-01T21:43:23.786Z,9.00
2023-01-01T21:45:31.141Z,9.00
2023-01-01T21:47:34.504Z,8.90
2023-01-01T21:49:37.333Z,8.90
2023-01-01T21:51:46.191Z,8.90
2023-01-01T21:53:48.257Z,8.90
2023-01-01T21:55:52.753Z,8.90
2023-01-01T21:58:20.901Z,8.80
2023-01-01T22:00:27.061Z,8.80
2023-01-01T22:02:37.593Z,8.70
2023-01-01T22:04:45.415Z,8.70
2023-01-01T22:06:51.200Z,8.60
2023-01-01T22:08:52.940Z,8.50
2023-01-01T22:10:57.438Z,8.50
2023-01-01T22:13:00.475Z,8.40
2023-01-01T22:15:27.451Z,8.30
2023-01-01T22:17:36.901Z,8.30
2023-01-01T22:19:39.171Z,8.20
2023-01-01T22:21:41.142Z,8.20
2023-01-01T22:23:43.387Z,8.10
2023-01-01T22:25:46.574Z,8.10
2023-01-01T22:27:48.330Z,8.00
2023-01-01T22:29:50.223Z,8.00
2023-01-01T22:32:02.837Z,8.00
2023-01-01T22:34:08.947Z,7.90
2023-01-01T22:36:33.844Z,7.90
2023-01-01T22:38:35.683Z,7.80
2023-01-01T22:40:39.023Z,7.80
2023-01-01T22:42:40.763Z,7.70
2023-01-01T22:44:43.422Z,7.70
2023-01-01T22:46:45.324Z,7.70
2023-01-01T22:48:49.949Z,7.60
2023-01-01T22:50:57.475Z,7.50
2023-01-01T22:52:59.302Z,7.50
2023-01-01T22:55:01.183Z,7.40
2023-01-01T22:57:02.924Z,7.40
2023-01-01T22:59:04.738Z,7.30
2023-01-01T23:01:06.908Z,7.30
2023-01-01T23:03:08.769Z,7.30
2023-01-01T23:05:11.506Z,7.20
2023-01-01T23:07:14.528Z,7.10
2023-01-01T23:09:16.378Z,7.10
2023-01-01T23:11:19.150Z,7.00
2023-01-01T23:13:39.506Z,7.00
2023-01-01T23:16:00.194Z,7.00
2023-01-01T23:18:02.004Z,7.00
2023-01-01T23:20:05.012Z,6.90
2023-01-01T23:22:07.097Z,6.90
2023-01-01T23:24:13.597Z,6.90
2023-01-01T23:26:15.621Z,6.90
2023-01-01T23:28:17.851Z,6.90
2023-01-01T23:30:19.839Z,6.80
2023-01-01T23:32:21.630Z,6.80
2023-01-01T23:34:23.903Z,6.80
2023-01-01T23:36:27.083Z,6.80
2023-01-01T23:38:29.871Z,6.70
2023-01-01T23:40:31.592Z,6.70
2023-01-01T23:42:33.403Z,6.70
2023-01-01T23:44:35.237Z,6.60
2023-01-01T23:46:38.943Z,6.60
2023-01-01T23:48:43.084Z,6.50
2023-01-01T23:50:46.084Z,6.50
2023-01-01T23:52:48.129Z,6.40
2023-01-01T23:54:49.880Z,6.40
2023-01-01T23:56:51.831Z,6.40
2023-01-01T23:58:53.562Z,6.40
